sensor_id;sensor_type;location;lat;lon;timestamp;pressure;altitude;pressure_sealevel;temperature;humidity
78679;BME280;67994;59.334;13.528;2023-04-03T00:00:00;103200.0;;;-0.6;60.3
78679;BME280;67994;59.334;13.528;2023-04-03T00:01:00;103200.0;;;-0.6;60.3
78679;BME280;67994;59.334;13.528;2023-04-03T00:02:00;103200.0;;;-0.6;60.2
78679;BME280;67994;59.334;13.528;2023-04-03T00:03:00;103200.0;;;-0.6;60.2
78679;BME280;67994;59.334;13.528;2023-04-03T00:04:00;103200.0;;;-0.5;60.0
78679;BME280;67994;59.334;13.528;2023-04-03T00:05:00;103200.0;;;-0.5;59.9
78679;BME280;67994;59.334;13.528;2023-04-03T00:06:00;103200.0;;;-0.7;60.1
78679;BME280;67994;59.334;13.528;2023-04-03T00:07:00;103200.0;;;-0.6;60.3
78679;BME280;67994;59.334;13.528;2023-04-03T00:08:00;103200.0;;;-0.6;60.1
78679;BME280;67994;59.334;13.528;2023-04-03T00:09:00;103200.0;;;-0.7;60.2
78679;BME280;67994;59.334;13.528;2023-04-03T00:10:00;103200.0;;;-0.7;60.1
78679;BME280;67994;59.334;13.528;2023-04-03T00:11:00;103200.0;;;-0.7;60.1
78679;BME280;67994;59.334;13.528;2023-04-03T00:12:00;103200.0;;;-0.7;60.2
78679;BME280;67994;59.334;13.528;2023-04-03T00:13:00;103200.0;;;-0.7;60.4
78679;BME280;67994;59.334;13.528;2023-04-03T00:14:00;103200.0;;;-0.8;60.7
78679;BME280;67994;59.334;13.528;2023-04-03T00:15:00;103200.0;;;-0.8;60.8
78679;BME280;67994;59.334;13.528;2023-04-03T00:16:00;103200.0;;;-0.8;60.6
78679;BME280;67994;59.334;13.528;2023-04-03T00:17:00;103200.0;;;-0.7;61.1
78679;BME280;67994;59.334;13.528;2023-04-03T00:18:00;103200.0;;;-0.7;61.0
78679;BME280;67994;59.334;13.528;2023-04-03T00:19:00;103200.0;;;-0.7;60.8
78679;BME280;67994;59.334;13.528;2023-04-03T00:20:00;103200.0;;;-0.9;61.2
78679;BME280;67994;59.334;13.528;2023-04-03T00:21:00;103200.0;;;-0.9;61.6
78679;BME280;67994;59.334;13.528;2023-04-03T00:22:00;103200.0;;;-1.0;61.6
78679;BME280;67994;59.334;13.528;2023-04-03T00:23:00;103200.0;;;-1.0;61.5
78679;BME280;67994;59.334;13.528;2023-04-03T00:24:00;103200.0;;;-1.0;61.5
78679;BME280;67994;59.334;13.528;2023-04-03T00:25:00;103200.0;;;-1.1;62.1
78679;BME280;67994;59.334;13.528;2023-04-03T00:26:00;103200.0;;;-1.2;63.1
78679;BME280;67994;59.334;13.528;2023-04-03T00:27:00;103200.0;;;-1.4;63.4
78679;BME280;67994;59.334;13.528;2023-04-03T00:28:00;103200.0;;;-1.4;63.4
78679;BME280;67994;59.334;13.528;2023-04-03T00:29:00;103200.0;;;-1.4;63.5
78679;BME280;67994;59.334;13.528;2023-04-03T00:30:00;103200.0;;;-1.5;63.8
78679;BME280;67994;59.334;13.528;2023-04-03T00:31:00;103200.0;;;-1.6;64.9
78679;BME280;67994;59.334;13.528;2023-04-03T00:32:00;103200.0;;;-1.8;65.2
78679;BME280;67994;59.334;13.528;2023-04-03T00:33:00;103200.0;;;-1.8;65.2
78679;BME280;67994;59.334;13.528;2023-04-03T00:34:00;103200.0;;;-1.7;64.9
78679;BME280;67994;59.334;13.528;2023-04-03T00:35:00;103200.0;;;-1.7;64.8
78679;BME280;67994;59.334;13.528;2023-04-03T00:36:04;103200.0;;;-1.7;64.9
78679;BME280;67994;59.334;13.528;2023-04-03T00:37:00;103200.0;;;-1.7;65.0
78679;BME280;67994;59.334;13.528;2023-04-03T00:38:00;103200.0;;;-1.8;64.9
78679;BME280;67994;59.334;13.528;2023-04-03T00:39:00;103200.0;;;-1.6;64.8
78679;BME280;67994;59.334;13.528;2023-04-03T00:40:00;103200.0;;;-1.7;65.3
78679;BME280;67994;59.334;13.528;2023-04-03T00:41:00;103200.0;;;-1.7;65.0
78679;BME280;67994;59.334;13.528;2023-04-03T00:42:00;103200.0;;;-1.7;65.0
78679;BME280;67994;59.334;13.528;2023-04-03T00:43:00;103200.0;;;-1.8;65.1
78679;BME280;67994;59.334;13.528;2023-04-03T00:44:00;103200.0;;;-1.7;65.0
78679;BME280;67994;59.334;13.528;2023-04-03T00:46:00;103200.0;;;-1.7;65.6
78679;BME280;67994;59.334;13.528;2023-04-03T00:47:02;103200.0;;;-1.7;65.9
78679;BME280;67994;59.334;13.528;2023-04-03T00:48:01;103200.0;;;-1.7;65.6
78679;BME280;67994;59.334;13.528;2023-04-03T00:49:00;103200.0;;;-1.8;66.0
78679;BME280;67994;59.334;13.528;2023-04-03T00:50:00;103200.0;;;-1.9;66.3
78679;BME280;67994;59.334;13.528;2023-04-03T00:51:00;103200.0;;;-1.9;66.1
78679;BME280;67994;59.334;13.528;2023-04-03T00:52:00;103200.0;;;-1.8;66.5
78679;BME280;67994;59.334;13.528;2023-04-03T00:53:00;103200.0;;;-1.9;66.8
78679;BME280;67994;59.334;13.528;2023-04-03T00:54:02;103200.0;;;-2.0;66.7
78679;BME280;67994;59.334;13.528;2023-04-03T00:55:02;103200.0;;;-2.1;66.7
78679;BME280;67994;59.334;13.528;2023-04-03T00:56:00;103200.0;;;-2.0;66.8
78679;BME280;67994;59.334;13.528;2023-04-03T00:57:00;103200.0;;;-2.0;67.1
78679;BME280;67994;59.334;13.528;2023-04-03T00:58:00;103200.0;;;-2.0;67.1
78679;BME280;67994;59.334;13.528;2023-04-03T00:59:04;103200.0;;;-2.1;67.1
78679;BME280;67994;59.334;13.528;2023-04-03T01:00:05;103200.0;;;-2.1;67.0
78679;BME280;67994;59.334;13.528;2023-04-03T01:01:03;103200.0;;;-2.1;67.0
78679;BME280;67994;59.334;13.528;2023-04-03T01:02:06;103200.0;;;-2.1;67.1
78679;BME280;67994;59.334;13.528;2023-04-03T01:03:00;103200.0;;;-2.1;67.4
78679;BME280;67994;59.334;13.528;2023-04-03T01:04:01;103200.0;;;-2.1;67.3
78679;BME280;67994;59.334;13.528;2023-04-03T01:05:00;103200.0;;;-2.1;67.3
78679;BME280;67994;59.334;13.528;2023-04-03T01:06:00;103200.0;;;-2.2;67.2
78679;BME280;67994;59.334;13.528;2023-04-03T01:07:02;103200.0;;;-2.2;67.2
78679;BME280;67994;59.334;13.528;2023-04-03T01:08:00;103200.0;;;-2.3;67.6
78679;BME280;67994;59.334;13.528;2023-04-03T01:09:00;103200.0;;;-2.2;68.2
78679;BME280;67994;59.334;13.528;2023-04-03T01:10:02;103200.0;;;-2.3;68.2
78679;BME280;67994;59.334;13.528;2023-04-03T01:11:00;103200.0;;;-2.4;68.9
78679;BME280;67994;59.334;13.528;2023-04-03T01:12:14;103200.0;;;-2.2;68.7
78679;BME280;67994;59.334;13.528;2023-04-03T01:13:00;103200.0;;;-2.3;69.0
78679;BME280;67994;59.334;13.528;2023-04-03T01:14:00;103200.0;;;-2.3;69.0
78679;BME280;67994;59.334;13.528;2023-04-03T01:15:04;103200.0;;;-2.3;68.8
78679;BME280;67994;59.334;13.528;2023-04-03T01:16:01;103200.0;;;-2.3;68.8
78679;BME280;67994;59.334;13.528;2023-04-03T01:17:00;103200.0;;;-2.3;68.7
78679;BME280;67994;59.334;13.528;2023-04-03T01:18:01;103200.0;;;-2.3;68.7
78679;BME280;67994;59.334;13.528;2023-04-03T01:19:00;103200.0;;;-2.3;68.9
78679;BME280;67994;59.334;13.528;2023-04-03T01:21:16;103200.0;;;-2.3;68.7
78679;BME280;67994;59.334;13.528;2023-04-03T01:22:13;103200.0;;;-2.4;69.3
78679;BME280;67994;59.334;13.528;2023-04-03T01:23:09;103200.0;;;-2.5;69.0
78679;BME280;67994;59.334;13.528;2023-04-03T01:24:09;103200.0;;;-2.5;69.0
78679;BME280;67994;59.334;13.528;2023-04-03T01:25:00;103200.0;;;-2.7;69.7
78679;BME280;67994;59.334;13.528;2023-04-03T01:26:00;103200.0;;;-2.7;69.9
78679;BME280;67994;59.334;13.528;2023-04-03T01:27:01;103200.0;;;-2.6;70.2
78679;BME280;67994;59.334;13.528;2023-04-03T01:28:00;103200.0;;;-2.6;70.2
78679;BME280;67994;59.334;13.528;2023-04-03T01:29:00;103200.0;;;-2.6;70.1
78679;BME280;67994;59.334;13.528;2023-04-03T01:30:00;103200.0;;;-2.7;70.3
78679;BME280;67994;59.334;13.528;2023-04-03T01:31:05;103200.0;;;-2.6;70.3
78679;BME280;67994;59.334;13.528;2023-04-03T01:32:02;103200.0;;;-2.6;70.4
78679;BME280;67994;59.334;13.528;2023-04-03T01:33:00;103200.0;;;-2.6;70.5
78679;BME280;67994;59.334;13.528;2023-04-03T01:34:00;103200.0;;;-2.5;70.7
78679;BME280;67994;59.334;13.528;2023-04-03T01:35:00;103200.0;;;-2.6;70.5
78679;BME280;67994;59.334;13.528;2023-04-03T01:36:00;103200.0;;;-2.6;70.6
78679;BME280;67994;59.334;13.528;2023-04-03T01:37:00;103200.0;;;-2.5;70.7
78679;BME280;67994;59.334;13.528;2023-04-03T01:38:00;103200.0;;;-2.5;70.3
78679;BME280;67994;59.334;13.528;2023-04-03T01:39:00;103200.0;;;-2.5;70.5
78679;BME280;67994;59.334;13.528;2023-04-03T01:40:00;103200.0;;;-2.5;70.2
78679;BME280;67994;59.334;13.528;2023-04-03T01:41:00;103200.0;;;-2.4;70.4
78679;BME280;67994;59.334;13.528;2023-04-03T01:42:00;103200.0;;;-2.6;70.0
78679;BME280;67994;59.334;13.528;2023-04-03T01:43:00;103200.0;;;-2.5;70.0
78679;BME280;67994;59.334;13.528;2023-04-03T01:44:00;103200.0;;;-2.6;69.7
78679;BME280;67994;59.334;13.528;2023-04-03T01:45:00;103200.0;;;-2.5;69.8
78679;BME280;67994;59.334;13.528;2023-04-03T01:46:00;103200.0;;;-2.6;70.3
78679;BME280;67994;59.334;13.528;2023-04-03T01:47:00;103200.0;;;-2.6;70.0
78679;BME280;67994;59.334;13.528;2023-04-03T01:48:01;103200.0;;;-2.6;70.2
78679;BME280;67994;59.334;13.528;2023-04-03T01:49:00;103200.0;;;-2.5;69.6
78679;BME280;67994;59.334;13.528;2023-04-03T01:50:00;103200.0;;;-2.7;69.9
78679;BME280;67994;59.334;13.528;2023-04-03T01:51:00;103200.0;;;-2.7;69.9
78679;BME280;67994;59.334;13.528;2023-04-03T01:52:00;103200.0;;;-2.6;69.8
78679;BME280;67994;59.334;13.528;2023-04-03T01:53:00;103200.0;;;-2.8;70.2
78679;BME280;67994;59.334;13.528;2023-04-03T01:54:00;103200.0;;;-2.7;69.8
78679;BME280;67994;59.334;13.528;2023-04-03T01:55:00;103200.0;;;-2.5;69.2
78679;BME280;67994;59.334;13.528;2023-04-03T01:56:00;103200.0;;;-2.7;69.4
78679;BME280;67994;59.334;13.528;2023-04-03T01:57:00;103200.0;;;-2.6;69.3
78679;BME280;67994;59.334;13.528;2023-04-03T01:58:00;103200.0;;;-2.7;69.2
78679;BME280;67994;59.334;13.528;2023-04-03T01:59:00;103200.0;;;-2.7;69.2
78679;BME280;67994;59.334;13.528;2023-04-03T02:00:00;103200.0;;;-2.8;69.2
78679;BME280;67994;59.334;13.528;2023-04-03T02:01:00;103200.0;;;-2.9;69.5
78679;BME280;67994;59.334;13.528;2023-04-03T02:02:00;103200.0;;;-3.0;69.8
78679;BME280;67994;59.334;13.528;2023-04-03T02:03:00;103200.0;;;-2.9;70.0
78679;BME280;67994;59.334;13.528;2023-04-03T02:04:00;103200.0;;;-3.1;70.2
78679;BME280;67994;59.334;13.528;2023-04-03T02:05:00;103200.0;;;-3.2;70.2
78679;BME280;67994;59.334;13.528;2023-04-03T02:06:00;103200.0;;;-3.0;70.2
78679;BME280;67994;59.334;13.528;2023-04-03T02:07:00;103200.0;;;-3.1;70.2
78679;BME280;67994;59.334;13.528;2023-04-03T02:08:00;103200.0;;;-3.1;70.8
78679;BME280;67994;59.334;13.528;2023-04-03T02:09:00;103200.0;;;-3.1;71.4
78679;BME280;67994;59.334;13.528;2023-04-03T02:10:00;103200.0;;;-2.8;71.5
78679;BME280;67994;59.334;13.528;2023-04-03T02:11:00;103200.0;;;-2.8;71.4
78679;BME280;67994;59.334;13.528;2023-04-03T02:12:00;103200.0;;;-2.8;71.5
78679;BME280;67994;59.334;13.528;2023-04-03T02:13:00;103200.0;;;-2.7;71.0
78679;BME280;67994;59.334;13.528;2023-04-03T02:14:00;103200.0;;;-2.6;70.2
78679;BME280;67994;59.334;13.528;2023-04-03T02:15:00;103200.0;;;-2.6;70.2
78679;BME280;67994;59.334;13.528;2023-04-03T02:16:06;103200.0;;;-2.6;70.5
78679;BME280;67994;59.334;13.528;2023-04-03T02:17:00;103200.0;;;-2.7;70.5
78679;BME280;67994;59.334;13.528;2023-04-03T02:18:00;103200.0;;;-2.7;70.6
78679;BME280;67994;59.334;13.528;2023-04-03T02:19:00;103200.0;;;-2.9;70.5
78679;BME280;67994;59.334;13.528;2023-04-03T02:20:00;103200.0;;;-3.0;69.8
78679;BME280;67994;59.334;13.528;2023-04-03T02:21:00;103200.0;;;-2.9;69.3
78679;BME280;67994;59.334;13.528;2023-04-03T02:22:00;103200.0;;;-2.9;69.6
78679;BME280;67994;59.334;13.528;2023-04-03T02:23:00;103200.0;;;-3.0;70.2
78679;BME280;67994;59.334;13.528;2023-04-03T02:24:00;103200.0;;;-3.0;70.2
78679;BME280;67994;59.334;13.528;2023-04-03T02:25:00;103200.0;;;-2.9;70.6
78679;BME280;67994;59.334;13.528;2023-04-03T02:26:04;103200.0;;;-3.2;70.5
78679;BME280;67994;59.334;13.528;2023-04-03T02:27:00;103200.0;;;-3.4;71.2
78679;BME280;67994;59.334;13.528;2023-04-03T02:28:00;103200.0;;;-3.4;72.3
78679;BME280;67994;59.334;13.528;2023-04-03T02:29:00;103200.0;;;-3.1;72.5
78679;BME280;67994;59.334;13.528;2023-04-03T02:30:00;103200.0;;;-3.1;72.4
78679;BME280;67994;59.334;13.528;2023-04-03T02:31:00;103200.0;;;-3.1;73.6
78679;BME280;67994;59.334;13.528;2023-04-03T02:32:00;103200.0;;;-3.2;73.7
78679;BME280;67994;59.334;13.528;2023-04-03T02:33:00;103200.0;;;-3.2;73.7
78679;BME280;67994;59.334;13.528;2023-04-03T02:34:00;103200.0;;;-3.2;73.6
78679;BME280;67994;59.334;13.528;2023-04-03T02:35:00;103200.0;;;-3.3;73.5
78679;BME280;67994;59.334;13.528;2023-04-03T02:36:00;103200.0;;;-3.3;73.4
78679;BME280;67994;59.334;13.528;2023-04-03T02:37:00;103200.0;;;-3.3;73.4
78679;BME280;67994;59.334;13.528;2023-04-03T02:38:00;103200.0;;;-3.3;73.2
78679;BME280;67994;59.334;13.528;2023-04-03T02:39:00;103200.0;;;-3.2;73.3
78679;BME280;67994;59.334;13.528;2023-04-03T02:40:00;103200.0;;;-3.1;72.9
78679;BME280;67994;59.334;13.528;2023-04-03T02:41:00;103200.0;;;-2.9;72.5
78679;BME280;67994;59.334;13.528;2023-04-03T02:42:00;103200.0;;;-3.0;72.3
78679;BME280;67994;59.334;13.528;2023-04-03T02:43:00;103200.0;;;-3.0;71.8
78679;BME280;67994;59.334;13.528;2023-04-03T02:44:00;103200.0;;;-3.0;71.3
78679;BME280;67994;59.334;13.528;2023-04-03T02:45:00;103200.0;;;-3.1;71.9
78679;BME280;67994;59.334;13.528;2023-04-03T02:46:00;103200.0;;;-3.1;71.7
78679;BME280;67994;59.334;13.528;2023-04-03T02:47:00;103200.0;;;-3.1;72.0
78679;BME280;67994;59.334;13.528;2023-04-03T02:48:00;103200.0;;;-3.1;71.7
78679;BME280;67994;59.334;13.528;2023-04-03T02:49:00;103200.0;;;-3.1;71.5
78679;BME280;67994;59.334;13.528;2023-04-03T02:50:00;103200.0;;;-3.1;71.2
78679;BME280;67994;59.334;13.528;2023-04-03T02:51:00;103200.0;;;-3.3;71.3
78679;BME280;67994;59.334;13.528;2023-04-03T02:52:00;103200.0;;;-3.1;71.5
78679;BME280;67994;59.334;13.528;2023-04-03T02:53:00;103200.0;;;-3.2;71.8
78679;BME280;67994;59.334;13.528;2023-04-03T02:54:00;103200.0;;;-3.1;71.7
78679;BME280;67994;59.334;13.528;2023-04-03T02:55:00;103200.0;;;-3.3;71.7
78679;BME280;67994;59.334;13.528;2023-04-03T02:56:00;103200.0;;;-3.3;72.0
78679;BME280;67994;59.334;13.528;2023-04-03T02:57:00;103200.0;;;-3.1;71.7
78679;BME280;67994;59.334;13.528;2023-04-03T02:58:00;103200.0;;;-3.1;71.7
78679;BME280;67994;59.334;13.528;2023-04-03T02:59:00;103200.0;;;-3.1;71.0
78679;BME280;67994;59.334;13.528;2023-04-03T03:00:00;103200.0;;;-2.9;70.4
78679;BME280;67994;59.334;13.528;2023-04-03T03:01:00;103200.0;;;-3.2;70.0
78679;BME280;67994;59.334;13.528;2023-04-03T03:02:00;103200.0;;;-3.2;70.0
78679;BME280;67994;59.334;13.528;2023-04-03T03:03:00;103200.0;;;-3.5;70.8
78679;BME280;67994;59.334;13.528;2023-04-03T03:04:00;103200.0;;;-3.3;70.8
78679;BME280;67994;59.334;13.528;2023-04-03T03:05:00;103200.0;;;-3.5;71.4
78679;BME280;67994;59.334;13.528;2023-04-03T03:06:01;103200.0;;;-3.5;71.4
78679;BME280;67994;59.334;13.528;2023-04-03T03:07:00;103200.0;;;-3.4;71.5
78679;BME280;67994;59.334;13.528;2023-04-03T03:08:00;103200.0;;;-3.7;71.9
78679;BME280;67994;59.334;13.528;2023-04-03T03:09:00;103200.0;;;-3.5;71.3
78679;BME280;67994;59.334;13.528;2023-04-03T03:10:00;103200.0;;;-3.3;71.3
78679;BME280;67994;59.334;13.528;2023-04-03T03:11:00;103200.0;;;-3.5;71.3
78679;BME280;67994;59.334;13.528;2023-04-03T03:12:00;103200.0;;;-3.2;70.9
78679;BME280;67994;59.334;13.528;2023-04-03T03:13:00;103200.0;;;-3.3;71.1
78679;BME280;67994;59.334;13.528;2023-04-03T03:14:00;103200.0;;;-3.4;70.8
78679;BME280;67994;59.334;13.528;2023-04-03T03:15:00;103200.0;;;-3.4;71.4
78679;BME280;67994;59.334;13.528;2023-04-03T03:16:00;103200.0;;;-3.4;71.6
78679;BME280;67994;59.334;13.528;2023-04-03T03:17:00;103200.0;;;-3.5;71.7
78679;BME280;67994;59.334;13.528;2023-04-03T03:18:00;103200.0;;;-3.6;71.9
78679;BME280;67994;59.334;13.528;2023-04-03T03:19:00;103200.0;;;-3.7;72.6
78679;BME280;67994;59.334;13.528;2023-04-03T03:20:00;103200.0;;;-3.8;73.7
78679;BME280;67994;59.334;13.528;2023-04-03T03:21:01;103200.0;;;-3.9;73.6
78679;BME280;67994;59.334;13.528;2023-04-03T03:22:00;103200.0;;;-4.0;73.8
78679;BME280;67994;59.334;13.528;2023-04-03T03:23:00;103200.0;;;-4.0;73.9
78679;BME280;67994;59.334;13.528;2023-04-03T03:24:00;103200.0;;;-3.9;73.5
78679;BME280;67994;59.334;13.528;2023-04-03T03:25:00;103200.0;;;-3.8;73.1
78679;BME280;67994;59.334;13.528;2023-04-03T03:26:03;103200.0;;;-3.6;72.3
78679;BME280;67994;59.334;13.528;2023-04-03T03:27:00;103200.0;;;-3.6;72.3
78679;BME280;67994;59.334;13.528;2023-04-03T03:28:00;103200.0;;;-4.0;72.7
78679;BME280;67994;59.334;13.528;2023-04-03T03:29:00;103200.0;;;-3.8;73.6
78679;BME280;67994;59.334;13.528;2023-04-03T03:30:00;103200.0;;;-3.9;74.2
78679;BME280;67994;59.334;13.528;2023-04-03T03:31:00;103200.0;;;-3.9;74.0
78679;BME280;67994;59.334;13.528;2023-04-03T03:32:00;103200.0;;;-3.9;73.8
78679;BME280;67994;59.334;13.528;2023-04-03T03:33:00;103200.0;;;-4.0;74.3
78679;BME280;67994;59.334;13.528;2023-04-03T03:34:00;103200.0;;;-4.0;73.9
78679;BME280;67994;59.334;13.528;2023-04-03T03:35:00;103200.0;;;-4.0;73.9
78679;BME280;67994;59.334;13.528;2023-04-03T03:36:00;103200.0;;;-4.0;74.6
78679;BME280;67994;59.334;13.528;2023-04-03T03:37:00;103200.0;;;-4.3;74.3
78679;BME280;67994;59.334;13.528;2023-04-03T03:38:00;103200.0;;;-4.3;74.3
78679;BME280;67994;59.334;13.528;2023-04-03T03:39:00;103200.0;;;-4.0;74.5
78679;BME280;67994;59.334;13.528;2023-04-03T03:40:00;103200.0;;;-4.3;75.1
78679;BME280;67994;59.334;13.528;2023-04-03T03:41:00;103200.0;;;-3.9;75.4
78679;BME280;67994;59.334;13.528;2023-04-03T03:42:00;103200.0;;;-3.9;75.4
78679;BME280;67994;59.334;13.528;2023-04-03T03:43:00;103200.0;;;-4.0;75.2
78679;BME280;67994;59.334;13.528;2023-04-03T03:44:00;103200.0;;;-3.8;75.3
78679;BME280;67994;59.334;13.528;2023-04-03T03:45:00;103200.0;;;-3.7;75.2
78679;BME280;67994;59.334;13.528;2023-04-03T03:46:00;103200.0;;;-3.6;75.1
78679;BME280;67994;59.334;13.528;2023-04-03T03:47:00;103200.0;;;-3.6;75.1
78679;BME280;67994;59.334;13.528;2023-04-03T03:48:00;103200.0;;;-3.6;74.6
78679;BME280;67994;59.334;13.528;2023-04-03T03:49:00;103200.0;;;-3.8;74.3
78679;BME280;67994;59.334;13.528;2023-04-03T03:50:00;103200.0;;;-3.8;74.3
78679;BME280;67994;59.334;13.528;2023-04-03T03:51:00;103200.0;;;-3.6;74.4
78679;BME280;67994;59.334;13.528;2023-04-03T03:52:00;103200.0;;;-3.8;74.8
78679;BME280;67994;59.334;13.528;2023-04-03T03:53:01;103200.0;;;-3.8;74.8
78679;BME280;67994;59.334;13.528;2023-04-03T03:54:00;103200.0;;;-3.8;75.0
78679;BME280;67994;59.334;13.528;2023-04-03T03:55:00;103200.0;;;-3.7;75.1
78679;BME280;67994;59.334;13.528;2023-04-03T03:56:00;103200.0;;;-3.7;75.0
78679;BME280;67994;59.334;13.528;2023-04-03T03:57:00;103200.0;;;-3.8;75.2
78679;BME280;67994;59.334;13.528;2023-04-03T03:58:00;103200.0;;;-3.8;74.9
78679;BME280;67994;59.334;13.528;2023-04-03T03:59:00;103200.0;;;-3.8;75.0
78679;BME280;67994;59.334;13.528;2023-04-03T04:00:00;103200.0;;;-3.8;74.8
78679;BME280;67994;59.334;13.528;2023-04-03T04:01:01;103200.0;;;-3.8;75.0
78679;BME280;67994;59.334;13.528;2023-04-03T04:02:00;103200.0;;;-3.8;74.4
78679;BME280;67994;59.334;13.528;2023-04-03T04:03:00;103200.0;;;-3.9;74.9
78679;BME280;67994;59.334;13.528;2023-04-03T04:04:00;103200.0;;;-3.8;74.9
78679;BME280;67994;59.334;13.528;2023-04-03T04:05:00;103200.0;;;-3.7;74.7
78679;BME280;67994;59.334;13.528;2023-04-03T04:06:00;103200.0;;;-3.8;74.6
78679;BME280;67994;59.334;13.528;2023-04-03T04:07:00;103200.0;;;-4.0;74.9
78679;BME280;67994;59.334;13.528;2023-04-03T04:08:00;103200.0;;;-4.0;75.9
78679;BME280;67994;59.334;13.528;2023-04-03T04:09:01;103200.0;;;-4.0;75.7
78679;BME280;67994;59.334;13.528;2023-04-03T04:10:00;103200.0;;;-4.1;75.5
78679;BME280;67994;59.334;13.528;2023-04-03T04:11:00;103200.0;;;-4.1;75.2
78679;BME280;67994;59.334;13.528;2023-04-03T04:12:00;103200.0;;;-4.1;75.3
78679;BME280;67994;59.334;13.528;2023-04-03T04:13:00;103200.0;;;-4.0;75.7
78679;BME280;67994;59.334;13.528;2023-04-03T04:14:00;103200.0;;;-3.9;75.5
78679;BME280;67994;59.334;13.528;2023-04-03T04:15:00;103200.0;;;-4.2;75.0
78679;BME280;67994;59.334;13.528;2023-04-03T04:16:00;103200.0;;;-4.1;75.0
78679;BME280;67994;59.334;13.528;2023-04-03T04:17:00;103200.0;;;-4.1;74.6
78679;BME280;67994;59.334;13.528;2023-04-03T04:18:00;103200.0;;;-4.1;74.3
78679;BME280;67994;59.334;13.528;2023-04-03T04:19:00;103200.0;;;-4.1;74.5
78679;BME280;67994;59.334;13.528;2023-04-03T04:20:00;103200.0;;;-4.1;74.5
78679;BME280;67994;59.334;13.528;2023-04-03T04:21:00;103200.0;;;-4.1;74.8
78679;BME280;67994;59.334;13.528;2023-04-03T04:22:00;103200.0;;;-4.1;75.3
78679;BME280;67994;59.334;13.528;2023-04-03T04:23:00;103200.0;;;-4.1;74.7
78679;BME280;67994;59.334;13.528;2023-04-03T04:24:00;103200.0;;;-4.1;74.1
78679;BME280;67994;59.334;13.528;2023-04-03T04:25:00;103200.0;;;-4.2;74.1
78679;BME280;67994;59.334;13.528;2023-04-03T04:26:00;103200.0;;;-4.1;74.6
78679;BME280;67994;59.334;13.528;2023-04-03T04:27:00;103200.0;;;-4.1;74.5
78679;BME280;67994;59.334;13.528;2023-04-03T04:28:00;103200.0;;;-4.1;74.9
78679;BME280;67994;59.334;13.528;2023-04-03T04:29:00;103200.0;;;-4.2;74.8
78679;BME280;67994;59.334;13.528;2023-04-03T04:30:00;103200.0;;;-4.0;74.5
78679;BME280;67994;59.334;13.528;2023-04-03T04:31:00;103200.0;;;-4.0;74.8
78679;BME280;67994;59.334;13.528;2023-04-03T04:32:00;103200.0;;;-4.0;75.1
78679;BME280;67994;59.334;13.528;2023-04-03T04:33:00;103200.0;;;-4.1;75.4
78679;BME280;67994;59.334;13.528;2023-04-03T04:34:00;103200.0;;;-4.2;75.7
78679;BME280;67994;59.334;13.528;2023-04-03T04:35:00;103200.0;;;-4.2;75.7
78679;BME280;67994;59.334;13.528;2023-04-03T04:36:00;103200.0;;;-4.2;75.7
78679;BME280;67994;59.334;13.528;2023-04-03T04:37:00;103200.0;;;-4.4;75.3
78679;BME280;67994;59.334;13.528;2023-04-03T04:38:00;103200.0;;;-4.3;75.4
78679;BME280;67994;59.334;13.528;2023-04-03T04:39:00;103200.0;;;-4.2;75.8
78679;BME280;67994;59.334;13.528;2023-04-03T04:40:00;103200.0;;;-4.1;75.5
78679;BME280;67994;59.334;13.528;2023-04-03T04:41:00;103200.0;;;-4.3;75.6
78679;BME280;67994;59.334;13.528;2023-04-03T04:42:00;103200.0;;;-4.3;75.0
78679;BME280;67994;59.334;13.528;2023-04-03T04:43:00;103200.0;;;-4.0;75.5
78679;BME280;67994;59.334;13.528;2023-04-03T04:44:00;103200.0;;;-4.0;75.4
78679;BME280;67994;59.334;13.528;2023-04-03T04:45:00;103200.0;;;-3.8;75.1
78679;BME280;67994;59.334;13.528;2023-04-03T04:46:01;103200.0;;;-3.7;75.3
78679;BME280;67994;59.334;13.528;2023-04-03T04:47:00;103200.0;;;-3.4;75.4
78679;BME280;67994;59.334;13.528;2023-04-03T04:48:00;103200.0;;;-3.3;74.8
78679;BME280;67994;59.334;13.528;2023-04-03T04:49:00;103200.0;;;-3.3;74.6
78679;BME280;67994;59.334;13.528;2023-04-03T04:50:00;103200.0;;;-3.5;74.9
78679;BME280;67994;59.334;13.528;2023-04-03T04:51:00;103200.0;;;-3.4;74.7
78679;BME280;67994;59.334;13.528;2023-04-03T04:52:00;103200.0;;;-3.5;74.6
78679;BME280;67994;59.334;13.528;2023-04-03T04:53:00;103200.0;;;-3.7;73.4
78679;BME280;67994;59.334;13.528;2023-04-03T04:54:00;103200.0;;;-3.7;73.4
78679;BME280;67994;59.334;13.528;2023-04-03T04:55:00;103200.0;;;-3.6;73.5
78679;BME280;67994;59.334;13.528;2023-04-03T04:56:00;103200.0;;;-3.6;74.0
78679;BME280;67994;59.334;13.528;2023-04-03T04:57:00;103200.0;;;-3.8;74.0
78679;BME280;67994;59.334;13.528;2023-04-03T04:58:00;103200.0;;;-3.8;73.5
78679;BME280;67994;59.334;13.528;2023-04-03T04:59:00;103200.0;;;-3.7;73.8
78679;BME280;67994;59.334;13.528;2023-04-03T05:00:00;103200.0;;;-3.9;73.7
78679;BME280;67994;59.334;13.528;2023-04-03T05:01:01;103200.0;;;-3.7;74.8
78679;BME280;67994;59.334;13.528;2023-04-03T05:02:00;103200.0;;;-3.6;75.4
78679;BME280;67994;59.334;13.528;2023-04-03T05:03:00;103200.0;;;-3.6;75.8
78679;BME280;67994;59.334;13.528;2023-04-03T05:04:00;103200.0;;;-3.7;75.8
78679;BME280;67994;59.334;13.528;2023-04-03T05:05:00;103200.0;;;-3.7;75.9
78679;BME280;67994;59.334;13.528;2023-04-03T05:06:00;103200.0;;;-3.6;75.0
78679;BME280;67994;59.334;13.528;2023-04-03T05:07:00;103200.0;;;-3.6;75.2
78679;BME280;67994;59.334;13.528;2023-04-03T05:08:00;103200.0;;;-3.6;75.7
78679;BME280;67994;59.334;13.528;2023-04-03T05:09:00;103200.0;;;-3.5;77.1
78679;BME280;67994;59.334;13.528;2023-04-03T05:10:00;103200.0;;;-3.4;76.0
78679;BME280;67994;59.334;13.528;2023-04-03T05:11:00;103200.0;;;-3.2;76.1
78679;BME280;67994;59.334;13.528;2023-04-03T05:12:00;103200.0;;;-3.2;75.6
78679;BME280;67994;59.334;13.528;2023-04-03T05:13:00;103200.0;;;-3.1;74.4
78679;BME280;67994;59.334;13.528;2023-04-03T05:14:00;103200.0;;;-3.0;74.2
78679;BME280;67994;59.334;13.528;2023-04-03T05:15:00;103200.0;;;-3.1;73.2
78679;BME280;67994;59.334;13.528;2023-04-03T05:16:00;103200.0;;;-3.0;72.4
78679;BME280;67994;59.334;13.528;2023-04-03T05:17:00;103200.0;;;-3.0;72.4
78679;BME280;67994;59.334;13.528;2023-04-03T05:18:00;103200.0;;;-2.9;72.8
78679;BME280;67994;59.334;13.528;2023-04-03T05:19:00;103200.0;;;-2.9;72.8
78679;BME280;67994;59.334;13.528;2023-04-03T05:20:00;103200.0;;;-2.7;72.6
78679;BME280;67994;59.334;13.528;2023-04-03T05:21:00;103200.0;;;-2.8;73.4
78679;BME280;67994;59.334;13.528;2023-04-03T05:22:00;103200.0;;;-2.6;73.7
78679;BME280;67994;59.334;13.528;2023-04-03T05:23:00;103200.0;;;-2.4;73.2